Station info - map view · info · telemetry · weather · raw · status · beacons · messages · bulletins · browse · moving · my account
Callsign, ship name or locator: Clear       
It is possible to search using wildcards (*?) after a prefix. Example: OH*
APRS station N8NPT-9 - show graphs
Map loading...
Mic-E message: In service
Location: 39°42.56' N 84°01.77' W - locator EM79XR60LF - show map - static map
7.5 miles East bearing 79° from Kettering, Montgomery County, Ohio, United States [?]
7.8 miles East bearing 98° from Oakwood, Montgomery County, Ohio, United States
44.1 miles Northeast bearing 31° from Cincinnati, Hamilton County, Ohio, United States
57.3 miles West bearing 253° from Columbus, Franklin County, Ohio, United States
Last position: 2018-10-03 15:36:34 EDT (17d 3h27m ago)
2018-10-03 15:36:34 EDT local time at Kettering, United States [?]
Altitude: 817 ft
Course: 113°
Speed: 12 MPH
Device: Yaesu: FTM-400DR (rig)
Last path: N8NPT-9>S9TR5V via qAR,KE0JMK-2
Positions stored: 4465
Other SSIDs: N8NPT
Stations near current position of N8NPT-9 - show more
callsign distance last heard - EDT      callsign distance last heard - EDT
W8JRW0.6 miles 275°2018-10-20 09:44:40 KD8PZV-80.8 miles 251°2018-10-19 21:12:45
W8JRW B0.8 miles 284°2018-10-20 14:16:54 W8JRW-B0.8 miles 284°2018-10-20 14:17:04
WA8ZWJ-100.9 miles 185°2018-10-20 17:24:21 WB8AM1.3 miles 181°2018-10-20 18:42:12
W8GCA-101.4 miles 208°2018-10-20 18:51:43 KD8VIG1.8 miles 269°2018-09-21 21:22:16
KD8VIG B1.8 miles 269°2018-10-20 18:48:49 KD8VIG-B1.8 miles 269°2018-10-20 18:48:59
EW35981.9 miles 62°2018-10-20 02:46:22 WX8P-72.0 miles 179°2018-10-01 19:57:43
WX8P2.0 miles 178°2018-10-15 06:33:36 WX8P-12.0 miles 178°2018-10-20 19:03:05
WX8P-102.1 miles 178°2018-10-07 06:04:13 WX8P-22.1 miles 178°2018-10-06 07:51:35
N8ADO-102.9 miles 244°2018-10-14 12:51:11 N8NQH-153.4 miles 230°2018-10-13 14:30:59
N8NQH-93.7 miles 212°2018-10-19 17:19:30 N8NQH-13.8 miles 212°2018-10-20 19:01:43
Stations which heard N8NPT-9 directly on radio –
callsign pkts first heard - EDT last heard longest (tx => rx) longest at - EDT
K8SCH-10 8 2018-10-01 08:55:53 2018-10-03 14:26:54 EM78PT > EM79RA 14.2 miles 28° 2018-10-03 14:10:46
NT4UX-3 6 2018-10-01 12:56:40 2018-10-03 10:16:40 EM65OX > EM66NG 19.3 miles 342° 2018-10-03 09:58:04
W1ARN-1 41 2018-10-01 12:18:14 2018-10-03 11:03:58 EM65NP > EM66SL 61.6 miles 22° 2018-10-01 13:39:20
W4GGM-1 5 2018-10-01 13:12:44 2018-10-03 10:20:44 EM66OE > EM65LN 46.8 miles 199° 2018-10-03 10:20:44
KA0AZS 2 2018-10-01 07:52:31 2018-10-03 15:23:12 EM79WP > EM79VQ 4.2 miles 311° 2018-10-01 07:52:31
W8BLV 13 2018-10-01 07:26:21 2018-10-03 15:23:06 EM79SE > EM79TM 22.2 miles 15° 2018-10-01 08:37:17
N5AAA-1 22 2018-10-01 13:16:43 2018-10-03 09:50:00 EM65OX > EM65NQ 19.6 miles 197° 2018-10-01 13:16:43
KI6SZ-2 8 2018-10-01 07:44:33 2018-10-03 15:31:07 EM79SG > EM79WT 42.8 miles 26° 2018-10-01 08:30:51
KJ4NES-3 10 2018-10-01 11:56:15 2018-10-03 11:29:59 EM67VB > EM67RA 17.1 miles 262° 2018-10-03 11:29:59
N8NQH-1 2 2018-10-01 07:34:22 2018-10-01 07:38:20 EM79XR > EM79XP 4.2 miles 207° 2018-10-01 07:34:22
W8MRG-3 7 2018-10-01 08:20:53 2018-10-03 14:36:08 EM79SG > EM79SD 8.7 miles 187° 2018-10-01 08:20:53
W8VFR-1 3 2018-10-01 08:00:36 2018-10-03 15:19:08 EM79VO > EM79PO 22.9 miles 273° 2018-10-03 15:19:08
W8VFR-9 3 2018-10-01 08:30:26 2018-10-01 08:57:52 EM79QA > EM79QR 49.1 miles 1° 2018-10-01 08:57:52
W8VFR-3 15 2018-10-01 07:56:32 2018-10-03 15:27:06 EM79SG > EM79TP 25.7 miles 10° 2018-10-01 08:20:52
W8VFR-4 8 2018-10-01 07:58:31 2018-10-03 15:23:06 EM79SG > EM79TR 33.1 miles 4° 2018-10-01 08:20:51
N9CVA-10 19 2018-10-01 10:06:52 2018-10-03 13:25:03 EM77CR > EM78BI 44.4 miles 359° 2018-10-03 12:17:59
W8VFR-11 2 2018-10-01 08:00:35 2018-10-01 09:07:52 EM78QU > EM79NO 52.5 miles 346° 2018-10-01 09:07:52
N4BCX 1 2018-10-01 15:06:07 2018-10-01 15:06:07 EM64QR > EM64SS 8.0 miles 60° 2018-10-01 15:06:07
KD8LXB-10 11 2018-10-01 07:58:31 2018-10-03 15:21:06 EM79SF > EM79QR 36.5 miles 349° 2018-10-01 08:28:26
KK4NAM 1 2018-10-03 08:47:31 2018-10-03 08:47:31 EM64OX > EM64RW 16.1 miles 106° 2018-10-03 08:47:31
KK4ZDZ-10 14 2018-10-01 10:26:26 2018-10-03 12:53:57 EM77DW > EM78EC 11.9 miles 9° 2018-10-03 12:34:03
KY4KY-3 22 2018-10-01 10:08:42 2018-10-03 13:16:46 EM78GH > EM78DB 23.0 miles 218° 2018-10-03 13:16:46
KG4OOZ-1 3 2018-10-01 10:55:31 2018-10-01 11:05:31 EM77CR > EM67UL 30.8 miles 239° 2018-10-01 10:55:31
KF4ERV-10 1 2018-10-01 10:19:28 2018-10-01 10:19:28 EM78DG > EM78DF 3.3 miles 188° 2018-10-01 10:19:28
W4RRK 3 2018-10-01 11:25:31 2018-10-03 11:47:59 EM77AF > EM77BE 5.1 miles 164° 2018-10-01 11:25:31
KE0JMK-2 12 2018-10-01 07:34:21 2018-10-03 15:36:34 EM79SG > EM79WR 34.7 miles 28° 2018-10-01 08:20:51
K4KPN-15 2 2018-10-01 09:15:52 2018-10-03 13:59:03 EM78OS > EM78RP 13.4 miles 122° 2018-10-01 09:15:52
N8DEU-7 30 2018-10-01 14:25:57 2018-10-03 09:17:47 EM65NH > EM64RR 44.3 miles 154° 2018-10-03 09:17:47
AJ4OL-10 1 2018-10-01 12:44:39 2018-10-01 12:44:39 EM66PK > EM66PK 0.8 miles 4° 2018-10-01 12:44:39
KF4ERV-2 3 2018-10-01 10:19:23 2018-10-03 12:43:59 EM78DC > EM78DF 7.9 miles 352° 2018-10-03 12:43:59

Only position packets which were originated by the station are shown here. The range statistics show some extra long hops, because some digipeaters do not correctly add themselves to the digipeater path. Please check the raw packets.
About this site
This page shows real-time information collected from the Automatic Position Reporting System Internet network (APRS-IS). APRS is used by amateur (ham) radio operators to transmit real-time position information, weather data, telemetry and messages over the radio. A vehicle equipped with a GPS receiver, a VHF transmitter or HF transceiver and a small computer device called a tracker transmits it's location, speed and course in a small data packet, which is then received by a nearby iGate receiving site which forwards the packet on the Internet. Systems connected to the Internet can send information on the APRS-IS without a radio transmitter, or collect and display information transmitted anywhere in the world.
FAQ · Blog · Discussion group · Linking to aprs.fi · AIS sites · Service status · Database statistics · Advertising on aprs.fi · Technical details · API · Change log · Planned changes · Credits and thanks · Terms Of Service · iPhone/iPad APRS